sensor_id;sensor_type;location;lat;lon;timestamp;P1;durP1;ratioP1;P2;durP2;ratioP2
16403;SDS011;8311;50.158;8.642;2022-11-20T00:02:53;1.00;;;0.90;;
16403;SDS011;8311;50.158;8.642;2022-11-20T00:05:46;1.48;;;0.90;;
16403;SDS011;8311;50.158;8.642;2022-11-20T00:08:39;1.05;;;0.90;;
16403;SDS011;8311;50.158;8.642;2022-11-20T00:11:33;1.38;;;1.15;;
16403;SDS011;8311;50.158;8.642;2022-11-20T00:14:26;1.20;;;1.00;;
16403;SDS011;8311;50.158;8.642;2022-11-20T00:17:19;1.90;;;1.10;;
16403;SDS011;8311;50.158;8.642;2022-11-20T00:20:14;1.50;;;1.20;;
16403;SDS011;8311;50.158;8.642;2022-11-20T00:23:07;1.23;;;0.95;;
16403;SDS011;8311;50.158;8.642;2022-11-20T00:26:01;1.17;;;0.85;;
16403;SDS011;8311;50.158;8.642;2022-11-20T00:28:56;1.88;;;1.05;;
16403;SDS011;8311;50.158;8.642;2022-11-20T00:31:50;1.98;;;1.10;;
16403;SDS011;8311;50.158;8.642;2022-11-20T00:34:43;0.60;;;0.55;;
16403;SDS011;8311;50.158;8.642;2022-11-20T00:37:37;1.30;;;0.85;;
16403;SDS011;8311;50.158;8.642;2022-11-20T00:40:30;1.10;;;0.93;;
16403;SDS011;8311;50.158;8.642;2022-11-20T00:43:23;0.88;;;0.80;;
16403;SDS011;8311;50.158;8.642;2022-11-20T00:46:17;1.00;;;0.90;;
16403;SDS011;8311;50.158;8.642;2022-11-20T00:49:12;1.50;;;1.05;;
16403;SDS011;8311;50.158;8.642;2022-11-20T00:52:05;1.00;;;0.90;;
16403;SDS011;8311;50.158;8.642;2022-11-20T00:54:59;1.23;;;1.02;;
16403;SDS011;8311;50.158;8.642;2022-11-20T00:57:53;1.52;;;0.95;;
16403;SDS011;8311;50.158;8.642;2022-11-20T01:00:46;0.95;;;0.85;;
16403;SDS011;8311;50.158;8.642;2022-11-20T01:03:41;1.33;;;0.90;;
16403;SDS011;8311;50.158;8.642;2022-11-20T01:06:36;2.30;;;0.80;;
16403;SDS011;8311;50.158;8.642;2022-11-20T01:09:30;2.45;;;0.90;;
16403;SDS011;8311;50.158;8.642;2022-11-20T01:12:25;0.82;;;0.82;;
16403;SDS011;8311;50.158;8.642;2022-11-20T01:15:18;1.77;;;1.20;;
16403;SDS011;8311;50.158;8.642;2022-11-20T01:18:11;1.40;;;0.95;;
16403;SDS011;8311;50.158;8.642;2022-11-20T01:21:05;1.13;;;0.98;;
16403;SDS011;8311;50.158;8.642;2022-11-20T01:23:59;0.80;;;0.70;;
16403;SDS011;8311;50.158;8.642;2022-11-20T01:26:53;1.63;;;1.20;;
16403;SDS011;8311;50.158;8.642;2022-11-20T01:29:48;0.82;;;0.80;;
16403;SDS011;8311;50.158;8.642;2022-11-20T01:32:41;1.48;;;1.00;;
16403;SDS011;8311;50.158;8.642;2022-11-20T01:35:34;0.82;;;0.82;;
16403;SDS011;8311;50.158;8.642;2022-11-20T01:38:27;1.05;;;0.90;;
16403;SDS011;8311;50.158;8.642;2022-11-20T01:41:20;1.00;;;0.90;;
16403;SDS011;8311;50.158;8.642;2022-11-20T01:44:43;0.80;;;0.80;;
16403;SDS011;8311;50.158;8.642;2022-11-20T01:47:56;1.50;;;0.98;;
16403;SDS011;8311;50.158;8.642;2022-11-20T01:50:50;1.02;;;0.93;;
16403;SDS011;8311;50.158;8.642;2022-11-20T01:53:44;1.05;;;0.88;;
16403;SDS011;8311;50.158;8.642;2022-11-20T01:56:39;1.08;;;0.90;;
16403;SDS011;8311;50.158;8.642;2022-11-20T01:59:35;1.00;;;0.90;;
16403;SDS011;8311;50.158;8.642;2022-11-20T02:02:33;1.42;;;0.90;;
16403;SDS011;8311;50.158;8.642;2022-11-20T02:05:28;1.55;;;0.95;;
16403;SDS011;8311;50.158;8.642;2022-11-20T02:08:24;2.20;;;1.08;;
16403;SDS011;8311;50.158;8.642;2022-11-20T02:11:17;1.60;;;1.10;;
16403;SDS011;8311;50.158;8.642;2022-11-20T02:14:10;1.05;;;0.90;;
16403;SDS011;8311;50.158;8.642;2022-11-20T02:17:02;1.63;;;1.00;;
16403;SDS011;8311;50.158;8.642;2022-11-20T02:19:55;1.63;;;0.90;;
16403;SDS011;8311;50.158;8.642;2022-11-20T02:22:50;1.27;;;0.90;;
16403;SDS011;8311;50.158;8.642;2022-11-20T02:25:49;1.02;;;0.80;;
16403;SDS011;8311;50.158;8.642;2022-11-20T02:28:42;1.10;;;1.00;;
16403;SDS011;8311;50.158;8.642;2022-11-20T02:31:40;1.73;;;0.90;;
16403;SDS011;8311;50.158;8.642;2022-11-20T02:34:34;1.23;;;0.90;;
16403;SDS011;8311;50.158;8.642;2022-11-20T02:37:32;0.73;;;0.70;;
16403;SDS011;8311;50.158;8.642;2022-11-20T02:40:26;0.93;;;0.82;;
16403;SDS011;8311;50.158;8.642;2022-11-20T02:43:21;1.05;;;0.95;;
16403;SDS011;8311;50.158;8.642;2022-11-20T02:46:14;0.60;;;0.60;;
16403;SDS011;8311;50.158;8.642;2022-11-20T02:49:07;1.33;;;1.00;;
16403;SDS011;8311;50.158;8.642;2022-11-20T02:52:00;1.17;;;0.95;;
16403;SDS011;8311;50.158;8.642;2022-11-20T02:54:54;0.85;;;0.70;;
16403;SDS011;8311;50.158;8.642;2022-11-20T02:57:47;1.10;;;1.00;;
16403;SDS011;8311;50.158;8.642;2022-11-20T03:00:42;1.52;;;1.00;;
16403;SDS011;8311;50.158;8.642;2022-11-20T03:03:35;1.50;;;1.00;;
16403;SDS011;8311;50.158;8.642;2022-11-20T03:06:28;1.38;;;0.82;;
16403;SDS011;8311;50.158;8.642;2022-11-20T03:09:21;1.85;;;0.90;;
16403;SDS011;8311;50.158;8.642;2022-11-20T03:12:14;1.05;;;0.73;;
16403;SDS011;8311;50.158;8.642;2022-11-20T03:15:08;1.58;;;1.00;;
16403;SDS011;8311;50.158;8.642;2022-11-20T03:18:03;0.75;;;0.75;;
16403;SDS011;8311;50.158;8.642;2022-11-20T03:20:56;1.15;;;0.90;;
16403;SDS011;8311;50.158;8.642;2022-11-20T03:23:50;1.00;;;0.90;;
16403;SDS011;8311;50.158;8.642;2022-11-20T03:26:43;1.60;;;1.00;;
16403;SDS011;8311;50.158;8.642;2022-11-20T03:29:36;0.77;;;0.75;;
16403;SDS011;8311;50.158;8.642;2022-11-20T03:32:29;1.65;;;1.10;;
16403;SDS011;8311;50.158;8.642;2022-11-20T03:35:24;1.85;;;0.90;;
16403;SDS011;8311;50.158;8.642;2022-11-20T03:38:17;1.05;;;0.88;;
16403;SDS011;8311;50.158;8.642;2022-11-20T03:41:11;1.58;;;1.10;;
16403;SDS011;8311;50.158;8.642;2022-11-20T03:44:06;1.23;;;0.98;;
16403;SDS011;8311;50.158;8.642;2022-11-20T03:47:00;1.13;;;0.80;;
16403;SDS011;8311;50.158;8.642;2022-11-20T03:49:53;1.08;;;0.88;;
16403;SDS011;8311;50.158;8.642;2022-11-20T03:52:48;1.35;;;0.88;;
16403;SDS011;8311;50.158;8.642;2022-11-20T03:55:41;1.45;;;0.90;;
16403;SDS011;8311;50.158;8.642;2022-11-20T03:58:34;1.15;;;0.90;;
16403;SDS011;8311;50.158;8.642;2022-11-20T04:01:29;0.95;;;0.90;;
16403;SDS011;8311;50.158;8.642;2022-11-20T04:04:23;1.20;;;0.80;;
16403;SDS011;8311;50.158;8.642;2022-11-20T04:07:16;0.80;;;0.80;;
16403;SDS011;8311;50.158;8.642;2022-11-20T04:10:11;1.38;;;1.00;;
16403;SDS011;8311;50.158;8.642;2022-11-20T04:13:04;1.42;;;1.10;;
16403;SDS011;8311;50.158;8.642;2022-11-20T04:15:58;1.02;;;0.93;;
16403;SDS011;8311;50.158;8.642;2022-11-20T04:18:51;0.80;;;0.80;;
16403;SDS011;8311;50.158;8.642;2022-11-20T04:21:45;1.85;;;0.70;;
16403;SDS011;8311;50.158;8.642;2022-11-20T04:24:38;1.02;;;0.85;;
16403;SDS011;8311;50.158;8.642;2022-11-20T04:27:32;1.05;;;0.95;;
16403;SDS011;8311;50.158;8.642;2022-11-20T04:30:25;1.20;;;0.90;;
16403;SDS011;8311;50.158;8.642;2022-11-20T04:33:18;0.98;;;0.88;;
16403;SDS011;8311;50.158;8.642;2022-11-20T04:36:12;1.15;;;0.95;;
16403;SDS011;8311;50.158;8.642;2022-11-20T04:39:11;1.02;;;0.80;;
16403;SDS011;8311;50.158;8.642;2022-11-20T04:42:07;0.73;;;0.73;;
16403;SDS011;8311;50.158;8.642;2022-11-20T04:45:20;1.65;;;1.10;;
16403;SDS011;8311;50.158;8.642;2022-11-20T04:48:13;1.33;;;1.00;;
16403;SDS011;8311;50.158;8.642;2022-11-20T04:51:06;1.23;;;0.82;;
16403;SDS011;8311;50.158;8.642;2022-11-20T04:54:00;0.77;;;0.70;;
16403;SDS011;8311;50.158;8.642;2022-11-20T04:56:53;1.42;;;1.00;;
16403;SDS011;8311;50.158;8.642;2022-11-20T04:59:46;1.52;;;1.02;;
16403;SDS011;8311;50.158;8.642;2022-11-20T05:02:41;1.63;;;1.23;;
16403;SDS011;8311;50.158;8.642;2022-11-20T05:05:34;1.33;;;0.98;;
16403;SDS011;8311;50.158;8.642;2022-11-20T05:08:27;1.20;;;0.90;;
16403;SDS011;8311;50.158;8.642;2022-11-20T05:11:21;1.02;;;0.85;;
16403;SDS011;8311;50.158;8.642;2022-11-20T05:14:14;1.48;;;1.00;;
16403;SDS011;8311;50.158;8.642;2022-11-20T05:17:09;1.25;;;1.00;;
16403;SDS011;8311;50.158;8.642;2022-11-20T05:20:04;0.88;;;0.80;;
16403;SDS011;8311;50.158;8.642;2022-11-20T05:22:57;0.80;;;0.73;;
16403;SDS011;8311;50.158;8.642;2022-11-20T05:25:51;1.50;;;0.93;;
16403;SDS011;8311;50.158;8.642;2022-11-20T05:28:49;1.55;;;1.05;;
16403;SDS011;8311;50.158;8.642;2022-11-20T05:31:43;0.88;;;0.82;;
16403;SDS011;8311;50.158;8.642;2022-11-20T05:34:37;0.93;;;0.73;;
16403;SDS011;8311;50.158;8.642;2022-11-20T05:37:31;0.70;;;0.70;;
16403;SDS011;8311;50.158;8.642;2022-11-20T05:40:24;1.27;;;1.00;;
16403;SDS011;8311;50.158;8.642;2022-11-20T05:43:17;1.58;;;0.88;;
16403;SDS011;8311;50.158;8.642;2022-11-20T05:46:12;1.48;;;1.00;;
16403;SDS011;8311;50.158;8.642;2022-11-20T05:49:07;0.85;;;0.85;;
16403;SDS011;8311;50.158;8.642;2022-11-20T05:52:00;0.70;;;0.70;;
16403;SDS011;8311;50.158;8.642;2022-11-20T05:54:55;1.30;;;1.15;;
16403;SDS011;8311;50.158;8.642;2022-11-20T05:57:48;1.15;;;0.88;;
16403;SDS011;8311;50.158;8.642;2022-11-20T06:00:41;0.93;;;0.82;;
16403;SDS011;8311;50.158;8.642;2022-11-20T06:03:34;1.45;;;1.00;;
16403;SDS011;8311;50.158;8.642;2022-11-20T06:06:27;0.75;;;0.75;;
16403;SDS011;8311;50.158;8.642;2022-11-20T06:09:20;0.85;;;0.73;;
16403;SDS011;8311;50.158;8.642;2022-11-20T06:12:15;1.33;;;0.95;;
16403;SDS011;8311;50.158;8.642;2022-11-20T06:15:08;0.85;;;0.80;;
16403;SDS011;8311;50.158;8.642;2022-11-20T06:18:03;0.88;;;0.88;;
16403;SDS011;8311;50.158;8.642;2022-11-20T06:21:00;0.90;;;0.70;;
16403;SDS011;8311;50.158;8.642;2022-11-20T06:23:54;1.20;;;0.95;;
16403;SDS011;8311;50.158;8.642;2022-11-20T06:26:47;1.30;;;1.00;;
16403;SDS011;8311;50.158;8.642;2022-11-20T06:29:41;1.05;;;0.90;;
16403;SDS011;8311;50.158;8.642;2022-11-20T06:32:34;1.20;;;0.90;;
16403;SDS011;8311;50.158;8.642;2022-11-20T06:35:27;1.20;;;0.85;;
16403;SDS011;8311;50.158;8.642;2022-11-20T06:38:20;0.88;;;0.80;;
16403;SDS011;8311;50.158;8.642;2022-11-20T06:41:20;1.38;;;0.90;;
16403;SDS011;8311;50.158;8.642;2022-11-20T06:44:14;0.80;;;0.80;;
16403;SDS011;8311;50.158;8.642;2022-11-20T06:47:09;1.08;;;0.98;;
16403;SDS011;8311;50.158;8.642;2022-11-20T06:50:03;0.88;;;0.80;;
16403;SDS011;8311;50.158;8.642;2022-11-20T06:53:00;1.65;;;0.88;;
16403;SDS011;8311;50.158;8.642;2022-11-20T06:55:55;0.98;;;0.80;;
16403;SDS011;8311;50.158;8.642;2022-11-20T06:58:48;1.35;;;1.10;;
16403;SDS011;8311;50.158;8.642;2022-11-20T07:01:41;0.75;;;0.75;;
16403;SDS011;8311;50.158;8.642;2022-11-20T07:04:36;1.52;;;1.10;;
16403;SDS011;8311;50.158;8.642;2022-11-20T07:07:28;1.08;;;0.80;;
16403;SDS011;8311;50.158;8.642;2022-11-20T07:10:22;0.80;;;0.80;;
16403;SDS011;8311;50.158;8.642;2022-11-20T07:13:15;0.85;;;0.77;;
16403;SDS011;8311;50.158;8.642;2022-11-20T07:16:09;0.70;;;0.70;;
16403;SDS011;8311;50.158;8.642;2022-11-20T07:19:01;0.77;;;0.70;;
16403;SDS011;8311;50.158;8.642;2022-11-20T07:21:56;1.00;;;0.90;;
16403;SDS011;8311;50.158;8.642;2022-11-20T07:24:48;0.93;;;0.88;;
16403;SDS011;8311;50.158;8.642;2022-11-20T07:27:41;0.93;;;0.85;;
16403;SDS011;8311;50.158;8.642;2022-11-20T07:30:34;1.42;;;1.00;;
16403;SDS011;8311;50.158;8.642;2022-11-20T07:33:27;1.02;;;0.82;;
16403;SDS011;8311;50.158;8.642;2022-11-20T07:36:21;1.15;;;0.90;;
16403;SDS011;8311;50.158;8.642;2022-11-20T07:39:16;1.13;;;1.02;;
16403;SDS011;8311;50.158;8.642;2022-11-20T07:42:09;0.98;;;0.80;;
16403;SDS011;8311;50.158;8.642;2022-11-20T07:45:04;0.70;;;0.70;;
16403;SDS011;8311;50.158;8.642;2022-11-20T07:47:58;1.10;;;0.90;;
16403;SDS011;8311;50.158;8.642;2022-11-20T07:50:53;1.33;;;0.90;;
16403;SDS011;8311;50.158;8.642;2022-11-20T07:53:46;1.00;;;0.90;;
16403;SDS011;8311;50.158;8.642;2022-11-20T07:56:41;1.55;;;1.00;;
16403;SDS011;8311;50.158;8.642;2022-11-20T07:59:33;1.05;;;0.70;;
16403;SDS011;8311;50.158;8.642;2022-11-20T08:02:27;1.00;;;0.90;;
16403;SDS011;8311;50.158;8.642;2022-11-20T08:05:20;1.08;;;0.93;;
16403;SDS011;8311;50.158;8.642;2022-11-20T08:08:13;1.23;;;0.90;;
16403;SDS011;8311;50.158;8.642;2022-11-20T08:11:06;1.55;;;0.90;;
16403;SDS011;8311;50.158;8.642;2022-11-20T08:14:18;0.77;;;0.70;;
16403;SDS011;8311;50.158;8.642;2022-11-20T08:17:10;1.30;;;1.08;;
16403;SDS011;8311;50.158;8.642;2022-11-20T08:20:04;1.23;;;0.88;;
16403;SDS011;8311;50.158;8.642;2022-11-20T08:22:58;1.25;;;0.95;;
16403;SDS011;8311;50.158;8.642;2022-11-20T08:25:52;1.08;;;0.95;;
16403;SDS011;8311;50.158;8.642;2022-11-20T08:28:46;1.38;;;0.90;;
16403;SDS011;8311;50.158;8.642;2022-11-20T08:31:40;1.30;;;0.95;;
16403;SDS011;8311;50.158;8.642;2022-11-20T08:34:33;1.35;;;0.95;;
16403;SDS011;8311;50.158;8.642;2022-11-20T08:37:25;2.17;;;0.95;;
16403;SDS011;8311;50.158;8.642;2022-11-20T08:40:18;1.15;;;1.00;;
16403;SDS011;8311;50.158;8.642;2022-11-20T08:43:12;2.15;;;1.00;;
16403;SDS011;8311;50.158;8.642;2022-11-20T08:46:04;1.33;;;0.90;;
16403;SDS011;8311;50.158;8.642;2022-11-20T08:48:59;2.20;;;1.10;;
16403;SDS011;8311;50.158;8.642;2022-11-20T08:51:52;1.90;;;1.02;;
16403;SDS011;8311;50.158;8.642;2022-11-20T08:54:47;3.38;;;1.20;;
16403;SDS011;8311;50.158;8.642;2022-11-20T08:57:39;1.77;;;1.13;;
16403;SDS011;8311;50.158;8.642;2022-11-20T09:00:39;1.58;;;1.08;;
16403;SDS011;8311;50.158;8.642;2022-11-20T09:03:32;1.70;;;1.08;;
16403;SDS011;8311;50.158;8.642;2022-11-20T09:06:30;1.83;;;1.00;;
16403;SDS011;8311;50.158;8.642;2022-11-20T09:09:23;1.73;;;0.95;;
16403;SDS011;8311;50.158;8.642;2022-11-20T09:12:17;2.92;;;1.50;;
16403;SDS011;8311;50.158;8.642;2022-11-20T09:15:10;1.40;;;1.30;;
16403;SDS011;8311;50.158;8.642;2022-11-20T09:18:03;1.23;;;1.00;;
16403;SDS011;8311;50.158;8.642;2022-11-20T09:20:56;1.30;;;0.98;;
16403;SDS011;8311;50.158;8.642;2022-11-20T09:23:52;1.40;;;1.00;;
16403;SDS011;8311;50.158;8.642;2022-11-20T09:26:46;1.23;;;1.00;;
16403;SDS011;8311;50.158;8.642;2022-11-20T09:29:38;1.27;;;1.08;;
16403;SDS011;8311;50.158;8.642;2022-11-20T09:32:32;1.23;;;0.90;;
16403;SDS011;8311;50.158;8.642;2022-11-20T09:35:25;1.98;;;0.88;;
16403;SDS011;8311;50.158;8.642;2022-11-20T09:38:18;3.08;;;1.10;;
16403;SDS011;8311;50.158;8.642;2022-11-20T09:41:19;2.33;;;1.48;;
16403;SDS011;8311;50.158;8.642;2022-11-20T09:44:54;1.60;;;1.05;;
16403;SDS011;8311;50.158;8.642;2022-11-20T09:51:31;1.60;;;1.05;;
16403;SDS011;8311;50.158;8.642;2022-11-20T09:54:33;1.38;;;1.13;;
16403;SDS011;8311;50.158;8.642;2022-11-20T09:57:35;2.65;;;1.40;;
16403;SDS011;8311;50.158;8.642;2022-11-20T10:00:31;2.30;;;1.52;;
16403;SDS011;8311;50.158;8.642;2022-11-20T10:03:26;3.17;;;1.13;;
16403;SDS011;8311;50.158;8.642;2022-11-20T10:06:30;1.63;;;1.00;;
16403;SDS011;8311;50.158;8.642;2022-11-20T10:09:27;1.75;;;1.10;;
16403;SDS011;8311;50.158;8.642;2022-11-20T10:12:25;2.58;;;1.60;;
16403;SDS011;8311;50.158;8.642;2022-11-20T10:15:29;1.45;;;1.25;;
16403;SDS011;8311;50.158;8.642;2022-11-20T10:18:29;3.83;;;1.67;;
16403;SDS011;8311;50.158;8.642;2022-11-20T10:21:34;2.42;;;1.52;;
16403;SDS011;8311;50.158;8.642;2022-11-20T10:24:37;2.28;;;1.25;;
16403;SDS011;8311;50.158;8.642;2022-11-20T10:30:57;1.63;;;1.15;;
16403;SDS011;8311;50.158;8.642;2022-11-20T10:33:55;1.77;;;1.27;;
16403;SDS011;8311;50.158;8.642;2022-11-20T10:37:12;1.42;;;1.13;;
16403;SDS011;8311;50.158;8.642;2022-11-20T10:40:15;1.77;;;1.52;;
16403;SDS011;8311;50.158;8.642;2022-11-20T10:43:15;2.05;;;1.25;;
16403;SDS011;8311;50.158;8.642;2022-11-20T10:46:14;1.80;;;1.30;;
16403;SDS011;8311;50.158;8.642;2022-11-20T10:49:11;2.08;;;1.33;;
16403;SDS011;8311;50.158;8.642;2022-11-20T10:52:09;1.38;;;1.02;;
16403;SDS011;8311;50.158;8.642;2022-11-20T10:55:06;1.95;;;0.98;;
16403;SDS011;8311;50.158;8.642;2022-11-20T10:58:14;1.48;;;1.20;;
16403;SDS011;8311;50.158;8.642;2022-11-20T11:01:14;2.67;;;1.13;;
16403;SDS011;8311;50.158;8.642;2022-11-20T11:04:15;1.58;;;1.10;;
16403;SDS011;8311;50.158;8.642;2022-11-20T11:07:17;1.70;;;1.17;;
16403;SDS011;8311;50.158;8.642;2022-11-20T11:10:15;2.35;;;1.27;;
16403;SDS011;8311;50.158;8.642;2022-11-20T11:13:18;1.60;;;1.17;;
16403;SDS011;8311;50.158;8.642;2022-11-20T11:16:19;1.80;;;1.20;;
16403;SDS011;8311;50.158;8.642;2022-11-20T11:19:14;2.25;;;1.30;;
16403;SDS011;8311;50.158;8.642;2022-11-20T11:22:09;1.65;;;1.10;;
16403;SDS011;8311;50.158;8.642;2022-11-20T11:25:07;1.65;;;1.00;;
16403;SDS011;8311;50.158;8.642;2022-11-20T11:28:17;1.58;;;1.30;;
16403;SDS011;8311;50.158;8.642;2022-11-20T11:31:22;1.60;;;1.33;;
16403;SDS011;8311;50.158;8.642;2022-11-20T11:34:17;2.60;;;1.52;;
16403;SDS011;8311;50.158;8.642;2022-11-20T11:37:10;1.95;;;1.20;;
16403;SDS011;8311;50.158;8.642;2022-11-20T11:40:09;2.00;;;0.90;;
16403;SDS011;8311;50.158;8.642;2022-11-20T11:43:17;1.15;;;1.00;;
16403;SDS011;8311;50.158;8.642;2022-11-20T11:46:32;1.90;;;1.20;;
16403;SDS011;8311;50.158;8.642;2022-11-20T11:49:26;2.13;;;1.40;;
16403;SDS011;8311;50.158;8.642;2022-11-20T11:52:20;2.25;;;1.25;;
16403;SDS011;8311;50.158;8.642;2022-11-20T11:55:15;1.25;;;1.00;;
16403;SDS011;8311;50.158;8.642;2022-11-20T11:58:16;1.92;;;1.30;;
16403;SDS011;8311;50.158;8.642;2022-11-20T12:01:26;1.52;;;1.00;;
16403;SDS011;8311;50.158;8.642;2022-11-20T12:04:29;1.60;;;1.05;;
16403;SDS011;8311;50.158;8.642;2022-11-20T12:07:37;2.75;;;1.27;;
16403;SDS011;8311;50.158;8.642;2022-11-20T12:10:40;1.80;;;1.08;;
16403;SDS011;8311;50.158;8.642;2022-11-20T12:13:39;2.08;;;1.40;;
16403;SDS011;8311;50.158;8.642;2022-11-20T12:16:38;1.23;;;1.10;;
16403;SDS011;8311;50.158;8.642;2022-11-20T12:19:34;1.73;;;1.27;;
16403;SDS011;8311;50.158;8.642;2022-11-20T12:22:30;2.10;;;1.27;;
16403;SDS011;8311;50.158;8.642;2022-11-20T12:25:34;2.60;;;1.35;;
16403;SDS011;8311;50.158;8.642;2022-11-20T12:28:32;2.47;;;1.42;;
16403;SDS011;8311;50.158;8.642;2022-11-20T12:31:37;1.63;;;1.23;;
16403;SDS011;8311;50.158;8.642;2022-11-20T12:34:50;2.85;;;1.42;;
16403;SDS011;8311;50.158;8.642;2022-11-20T12:37:52;1.45;;;1.10;;
16403;SDS011;8311;50.158;8.642;2022-11-20T12:41:00;1.45;;;1.10;;
16403;SDS011;8311;50.158;8.642;2022-11-20T12:44:01;1.83;;;1.20;;
16403;SDS011;8311;50.158;8.642;2022-11-20T12:47:22;1.52;;;1.20;;
16403;SDS011;8311;50.158;8.642;2022-11-20T12:50:30;1.58;;;1.10;;
16403;SDS011;8311;50.158;8.642;2022-11-20T12:53:54;1.55;;;1.20;;
16403;SDS011;8311;50.158;8.642;2022-11-20T12:57:00;3.05;;;1.55;;
16403;SDS011;8311;50.158;8.642;2022-11-20T13:03:31;2.10;;;1.30;;
16403;SDS011;8311;50.158;8.642;2022-11-20T13:06:32;1.65;;;1.20;;
16403;SDS011;8311;50.158;8.642;2022-11-20T13:09:26;1.20;;;1.10;;
16403;SDS011;8311;50.158;8.642;2022-11-20T13:12:22;2.33;;;1.15;;
16403;SDS011;8311;50.158;8.642;2022-11-20T13:15:23;1.65;;;1.40;;
16403;SDS011;8311;50.158;8.642;2022-11-20T13:18:25;2.75;;;1.33;;
16403;SDS011;8311;50.158;8.642;2022-11-20T13:21:20;1.17;;;1.02;;
16403;SDS011;8311;50.158;8.642;2022-11-20T13:24:24;1.98;;;1.30;;
16403;SDS011;8311;50.158;8.642;2022-11-20T13:27:21;1.75;;;1.20;;
16403;SDS011;8311;50.158;8.642;2022-11-20T13:30:16;2.05;;;1.27;;
16403;SDS011;8311;50.158;8.642;2022-11-20T13:33:22;1.52;;;1.20;;
16403;SDS011;8311;50.158;8.642;2022-11-20T13:36:22;2.28;;;1.35;;
16403;SDS011;8311;50.158;8.642;2022-11-20T13:39:25;2.25;;;1.42;;
16403;SDS011;8311;50.158;8.642;2022-11-20T13:42:20;1.27;;;1.00;;
16403;SDS011;8311;50.158;8.642;2022-11-20T13:45:21;1.88;;;1.30;;
16403;SDS011;8311;50.158;8.642;2022-11-20T13:48:19;2.08;;;1.30;;
16403;SDS011;8311;50.158;8.642;2022-11-20T13:51:15;1.83;;;1.20;;
16403;SDS011;8311;50.158;8.642;2022-11-20T13:54:26;1.65;;;1.27;;
16403;SDS011;8311;50.158;8.642;2022-11-20T13:57:53;1.80;;;1.05;;
16403;SDS011;8311;50.158;8.642;2022-11-20T14:00:57;1.55;;;1.20;;
16403;SDS011;8311;50.158;8.642;2022-11-20T14:03:54;1.63;;;1.20;;
16403;SDS011;8311;50.158;8.642;2022-11-20T14:07:04;1.80;;;1.27;;
16403;SDS011;8311;50.158;8.642;2022-11-20T14:10:00;1.77;;;1.30;;
16403;SDS011;8311;50.158;8.642;2022-11-20T14:12:54;2.03;;;1.13;;
16403;SDS011;8311;50.158;8.642;2022-11-20T14:15:48;2.00;;;1.50;;
16403;SDS011;8311;50.158;8.642;2022-11-20T14:18:49;2.20;;;1.30;;
16403;SDS011;8311;50.158;8.642;2022-11-20T14:21:42;1.30;;;1.15;;
16403;SDS011;8311;50.158;8.642;2022-11-20T14:24:35;1.65;;;1.20;;
16403;SDS011;8311;50.158;8.642;2022-11-20T14:27:29;1.42;;;1.17;;
16403;SDS011;8311;50.158;8.642;2022-11-20T14:30:26;1.95;;;1.38;;
16403;SDS011;8311;50.158;8.642;2022-11-20T14:33:21;1.83;;;1.40;;
16403;SDS011;8311;50.158;8.642;2022-11-20T14:36:16;1.30;;;1.05;;
16403;SDS011;8311;50.158;8.642;2022-11-20T14:39:11;1.92;;;1.33;;
16403;SDS011;8311;50.158;8.642;2022-11-20T14:42:15;1.92;;;1.33;;
16403;SDS011;8311;50.158;8.642;2022-11-20T14:45:12;1.42;;;1.10;;
16403;SDS011;8311;50.158;8.642;2022-11-20T14:48:05;1.75;;;1.30;;
16403;SDS011;8311;50.158;8.642;2022-11-20T14:51:03;2.30;;;1.60;;
16403;SDS011;8311;50.158;8.642;2022-11-20T14:53:55;1.80;;;1.42;;
16403;SDS011;8311;50.158;8.642;2022-11-20T14:57:01;2.30;;;1.20;;
16403;SDS011;8311;50.158;8.642;2022-11-20T15:00:05;2.88;;;1.33;;
16403;SDS011;8311;50.158;8.642;2022-11-20T15:03:01;2.13;;;1.33;;
16403;SDS011;8311;50.158;8.642;2022-11-20T15:05:55;1.33;;;1.20;;
16403;SDS011;8311;50.158;8.642;2022-11-20T15:08:50;1.38;;;1.05;;
16403;SDS011;8311;50.158;8.642;2022-11-20T15:11:51;2.08;;;1.40;;
16403;SDS011;8311;50.158;8.642;2022-11-20T15:14:46;1.63;;;1.23;;
16403;SDS011;8311;50.158;8.642;2022-11-20T15:17:39;2.95;;;1.52;;
16403;SDS011;8311;50.158;8.642;2022-11-20T15:20:34;2.55;;;1.42;;
16403;SDS011;8311;50.158;8.642;2022-11-20T15:23:28;2.88;;;1.20;;
16403;SDS011;8311;50.158;8.642;2022-11-20T15:26:23;2.35;;;1.50;;
16403;SDS011;8311;50.158;8.642;2022-11-20T15:29:17;1.33;;;1.20;;
16403;SDS011;8311;50.158;8.642;2022-11-20T15:32:12;2.10;;;1.58;;
16403;SDS011;8311;50.158;8.642;2022-11-20T15:35:05;1.10;;;1.00;;
16403;SDS011;8311;50.158;8.642;2022-11-20T15:38:00;2.03;;;1.20;;
16403;SDS011;8311;50.158;8.642;2022-11-20T15:40:54;1.50;;;1.20;;
16403;SDS011;8311;50.158;8.642;2022-11-20T15:43:47;2.70;;;1.63;;
16403;SDS011;8311;50.158;8.642;2022-11-20T15:46:41;2.13;;;1.48;;
16403;SDS011;8311;50.158;8.642;2022-11-20T15:49:36;2.13;;;1.20;;
16403;SDS011;8311;50.158;8.642;2022-11-20T15:52:30;1.80;;;1.33;;
16403;SDS011;8311;50.158;8.642;2022-11-20T15:55:33;1.88;;;1.15;;
16403;SDS011;8311;50.158;8.642;2022-11-20T15:58:27;1.80;;;1.30;;
16403;SDS011;8311;50.158;8.642;2022-11-20T16:01:21;1.85;;;1.10;;
16403;SDS011;8311;50.158;8.642;2022-11-20T16:04:15;2.80;;;1.30;;
16403;SDS011;8311;50.158;8.642;2022-11-20T16:07:09;1.83;;;1.20;;
16403;SDS011;8311;50.158;8.642;2022-11-20T16:10:02;1.88;;;1.20;;
16403;SDS011;8311;50.158;8.642;2022-11-20T16:12:57;2.50;;;1.48;;
16403;SDS011;8311;50.158;8.642;2022-11-20T16:16:10;1.55;;;1.10;;
16403;SDS011;8311;50.158;8.642;2022-11-20T16:19:11;2.42;;;1.30;;
16403;SDS011;8311;50.158;8.642;2022-11-20T16:22:05;1.55;;;1.20;;
16403;SDS011;8311;50.158;8.642;2022-11-20T16:24:58;1.67;;;1.17;;
16403;SDS011;8311;50.158;8.642;2022-11-20T16:27:52;1.63;;;1.20;;
16403;SDS011;8311;50.158;8.642;2022-11-20T16:30:47;3.38;;;1.52;;
16403;SDS011;8311;50.158;8.642;2022-11-20T16:33:40;2.13;;;1.30;;
16403;SDS011;8311;50.158;8.642;2022-11-20T16:36:34;2.55;;;1.48;;
16403;SDS011;8311;50.158;8.642;2022-11-20T16:39:28;2.75;;;1.40;;
16403;SDS011;8311;50.158;8.642;2022-11-20T16:42:21;2.53;;;1.40;;
16403;SDS011;8311;50.158;8.642;2022-11-20T16:45:14;1.80;;;1.35;;
16403;SDS011;8311;50.158;8.642;2022-11-20T16:48:18;2.15;;;1.20;;
16403;SDS011;8311;50.158;8.642;2022-11-20T16:51:11;2.17;;;1.38;;
16403;SDS011;8311;50.158;8.642;2022-11-20T16:54:06;1.80;;;1.30;;
16403;SDS011;8311;50.158;8.642;2022-11-20T16:57:00;2.45;;;1.35;;
16403;SDS011;8311;50.158;8.642;2022-11-20T16:59:53;1.48;;;1.13;;
16403;SDS011;8311;50.158;8.642;2022-11-20T17:02:52;2.22;;;1.42;;
16403;SDS011;8311;50.158;8.642;2022-11-20T17:05:46;2.33;;;1.23;;
16403;SDS011;8311;50.158;8.642;2022-11-20T17:08:39;1.70;;;1.27;;
16403;SDS011;8311;50.158;8.642;2022-11-20T17:11:32;1.80;;;1.40;;
16403;SDS011;8311;50.158;8.642;2022-11-20T17:14:25;2.17;;;1.58;;
16403;SDS011;8311;50.158;8.642;2022-11-20T17:17:18;1.33;;;1.17;;
16403;SDS011;8311;50.158;8.642;2022-11-20T17:20:11;1.42;;;1.23;;
16403;SDS011;8311;50.158;8.642;2022-11-20T17:23:05;1.38;;;1.20;;
16403;SDS011;8311;50.158;8.642;2022-11-20T17:26:01;1.88;;;1.20;;
16403;SDS011;8311;50.158;8.642;2022-11-20T17:28:56;1.88;;;1.25;;
16403;SDS011;8311;50.158;8.642;2022-11-20T17:31:50;2.40;;;1.60;;
16403;SDS011;8311;50.158;8.642;2022-11-20T17:34:44;2.47;;;1.75;;
16403;SDS011;8311;50.158;8.642;2022-11-20T17:37:37;1.38;;;1.08;;
16403;SDS011;8311;50.158;8.642;2022-11-20T17:40:31;1.92;;;1.13;;
16403;SDS011;8311;50.158;8.642;2022-11-20T17:43:25;1.63;;;1.20;;
16403;SDS011;8311;50.158;8.642;2022-11-20T17:46:26;1.20;;;1.10;;
16403;SDS011;8311;50.158;8.642;2022-11-20T17:49:21;1.83;;;1.23;;
16403;SDS011;8311;50.158;8.642;2022-11-20T17:52:14;1.20;;;1.00;;
16403;SDS011;8311;50.158;8.642;2022-11-20T17:55:07;1.65;;;1.23;;
16403;SDS011;8311;50.158;8.642;2022-11-20T17:58:02;1.80;;;1.17;;
16403;SDS011;8311;50.158;8.642;2022-11-20T18:01:02;1.95;;;1.45;;
16403;SDS011;8311;50.158;8.642;2022-11-20T18:03:56;1.77;;;1.17;;
16403;SDS011;8311;50.158;8.642;2022-11-20T18:06:49;1.90;;;1.08;;
16403;SDS011;8311;50.158;8.642;2022-11-20T18:09:42;1.52;;;1.30;;